Port Fraser — CZ3230 — position and weather

sailwx.info

Track history (hours):
 
Tides and Currents Weather Stations Pressure Air Temp Water Temp Dewpoint Dewpoint Depression Visibility Wind Speed Wind Dir Waves Ship Positions

Port Fraser

Last reported at 2018-Feb-20 00:08 UTC. Time now 2018-Feb-24 10:07 UTC.
Position N 49°12' W 122°55'.

; draft 0.1 m.

Type: Other ship. MMSI: 31200012.

Date/timePositionNaut miles runAvg speedWind from/ knotsBaromVisibWave heightAir tempDewpointWater temp
2018-Feb-20 00:08N 49°12' W 122°55'0 0.0
2018-Feb-19 23:59N 49°12' W 122°55'0 0.0
2018-Feb-19 23:30N 49°12' W 122°55'0 0.0
2018-Feb-19 23:00N 49°12' W 122°55'0 0.0
2018-Feb-19 22:30N 49°12' W 122°55'2 4.7
2018-Feb-19 22:00N 49°10' W 122°57'5 9.8
2018-Feb-19 21:31N 49°08' W 123°04'5 3.5
2018-Feb-19 20:02N 49°07' W 123°12'122.4
2018-Feb-19 20:00N 49°07' W 123°11'816.3
2018-Feb-19 19:30N 49°10' W 122°59'3 6.2
2018-Feb-19 19:00N 49°11' W 122°55'1 1.1
2018-Feb-19 18:30N 49°12' W 122°55'  
2018-Feb-17 00:33N 49°12' W 122°55'0 0.0
2018-Feb-17 00:30N 49°12' W 122°55'3 6.1
2018-Feb-16 23:59N 49°13' W 122°51'3 5.9
2018-Feb-16 23:30N 49°11' W 122°55'1 1.8
2018-Feb-16 23:01N 49°11' W 122°55'4 7.1
2018-Feb-16 22:30N 49°09' W 122°60'4 7.3
2018-Feb-16 22:00N 49°07' W 123°05'5 9.3
2018-Feb-16 21:31N 49°10' W 122°59'3 5.0
2018-Feb-16 21:00N 49°11' W 122°56'0 0.0
2018-Feb-16 00:05N 49°12' W 122°55'0 0.0
2018-Feb-16 00:00N 49°12' W 122°55'3 5.1
2018-Feb-15 23:29N 49°13' W 122°52'4 8.4
2018-Feb-15 23:00N 49°14' W 122°46'4 7.2
2018-Feb-15 22:28N 49°11' W 122°42'4 8.1
2018-Feb-15 21:56N 49°12' W 122°35'2 2.6
2018-Feb-15 21:20N 49°13' W 122°38'3 7.9
2018-Feb-15 20:56N 49°12' W 122°42'4 9.1
2018-Feb-15 20:30N 49°13' W 122°48'510.1
2018-Feb-15 20:00N 49°11' W 122°55'510.2
2018-Feb-15 19:30N 49°09' W 123°02'510.1
2018-Feb-15 19:00N 49°06' W 123°09'2 4.5
2018-Feb-15 18:30N 49°06' W 123°05'1 1.9
2018-Feb-15 17:59N 49°07' W 123°05'3 7.1
2018-Feb-15 17:30N 49°09' W 123°02'3 5.4
2018-Feb-15 17:00N 49°10' W 122°58'2 4.2
2018-Feb-15 16:29N 49°12' W 122°55'0 0.0
2018-Feb-14 00:35N 49°12' W 122°55'0 0.0
2018-Feb-14 00:30N 49°12' W 122°55'0 0.0
2018-Feb-14 00:00N 49°12' W 122°55'0 0.0
2018-Feb-13 23:30N 49°12' W 122°55'0 0.0
2018-Feb-13 23:00N 49°12' W 122°55'0 0.0
2018-Feb-13 22:30N 49°12' W 122°55'0 0.0
2018-Feb-13 22:00N 49°12' W 122°55'0 0.0
2018-Feb-13 21:30N 49°12' W 122°55'0 0.0
2018-Feb-13 21:00N 49°12' W 122°55'3 6.1
2018-Feb-13 20:29N 49°13' W 122°51'4 8.6
2018-Feb-13 20:00N 49°14' W 122°45'5 9.8
2018-Feb-13 19:29N 49°18' W 122°41'3 5.6
2018-Feb-13 18:59N 49°16' W 122°43'3 5.1
2018-Feb-13 18:28N 49°14' W 122°46'4 8.1
2018-Feb-13 17:58N 49°13' W 122°51'3 6.3
2018-Feb-13 17:30N 49°12' W 122°55'0 0.0
2018-Feb-13 17:00N 49°12' W 122°55'0 0.0
2018-Feb-13 16:30N 49°12' W 122°55'  
Track history (hours):
 
Tides and Currents Weather Stations Pressure Air Temp Water Temp Dewpoint Dewpoint Depression Visibility Wind Speed Wind Dir Waves Ship Positions

Port Fraser

Last reported at 2018-Feb-20 00:08 UTC. Time now 2018-Feb-24 10:07 UTC.
Position N 49°12' W 122°55'.

; draft 0.1 m.

Type: Other ship. MMSI: 31200012.

Date/timePositionNaut miles runAvg speedWind from/ knotsBaromVisibWave heightAir tempDewpointWater temp
2018-Feb-20 00:08N 49°12' W 122°55'0 0.0
2018-Feb-19 23:59N 49°12' W 122°55'0 0.0
2018-Feb-19 23:30N 49°12' W 122°55'0 0.0
2018-Feb-19 23:00N 49°12' W 122°55'0 0.0
2018-Feb-19 22:30N 49°12' W 122°55'2 4.7
2018-Feb-19 22:00N 49°10' W 122°57'5 9.8
2018-Feb-19 21:31N 49°08' W 123°04'5 3.5
2018-Feb-19 20:02N 49°07' W 123°12'122.4
2018-Feb-19 20:00N 49°07' W 123°11'816.3
2018-Feb-19 19:30N 49°10' W 122°59'3 6.2
2018-Feb-19 19:00N 49°11' W 122°55'1 1.1
2018-Feb-19 18:30N 49°12' W 122°55'  
2018-Feb-17 00:33N 49°12' W 122°55'0 0.0
2018-Feb-17 00:30N 49°12' W 122°55'3 6.1
2018-Feb-16 23:59N 49°13' W 122°51'3 5.9
2018-Feb-16 23:30N 49°11' W 122°55'1 1.8
2018-Feb-16 23:01N 49°11' W 122°55'4 7.1
2018-Feb-16 22:30N 49°09' W 122°60'4 7.3
2018-Feb-16 22:00N 49°07' W 123°05'5 9.3
2018-Feb-16 21:31N 49°10' W 122°59'3 5.0
2018-Feb-16 21:00N 49°11' W 122°56'0 0.0
2018-Feb-16 00:05N 49°12' W 122°55'0 0.0
2018-Feb-16 00:00N 49°12' W 122°55'3 5.1
2018-Feb-15 23:29N 49°13' W 122°52'4 8.4
2018-Feb-15 23:00N 49°14' W 122°46'4 7.2
2018-Feb-15 22:28N 49°11' W 122°42'4 8.1
2018-Feb-15 21:56N 49°12' W 122°35'2 2.6
2018-Feb-15 21:20N 49°13' W 122°38'3 7.9
2018-Feb-15 20:56N 49°12' W 122°42'4 9.1
2018-Feb-15 20:30N 49°13' W 122°48'510.1
2018-Feb-15 20:00N 49°11' W 122°55'510.2
2018-Feb-15 19:30N 49°09' W 123°02'510.1
2018-Feb-15 19:00N 49°06' W 123°09'2 4.5
2018-Feb-15 18:30N 49°06' W 123°05'1 1.9
2018-Feb-15 17:59N 49°07' W 123°05'3 7.1
2018-Feb-15 17:30N 49°09' W 123°02'3 5.4
2018-Feb-15 17:00N 49°10' W 122°58'2 4.2
2018-Feb-15 16:29N 49°12' W 122°55'0 0.0
2018-Feb-14 00:35N 49°12' W 122°55'0 0.0
2018-Feb-14 00:30N 49°12' W 122°55'0 0.0
2018-Feb-14 00:00N 49°12' W 122°55'0 0.0
2018-Feb-13 23:30N 49°12' W 122°55'0 0.0
2018-Feb-13 23:00N 49°12' W 122°55'0 0.0
2018-Feb-13 22:30N 49°12' W 122°55'0 0.0
2018-Feb-13 22:00N 49°12' W 122°55'0 0.0
2018-Feb-13 21:30N 49°12' W 122°55'0 0.0
2018-Feb-13 21:00N 49°12' W 122°55'3 6.1
2018-Feb-13 20:29N 49°13' W 122°51'4 8.6
2018-Feb-13 20:00N 49°14' W 122°45'5 9.8
2018-Feb-13 19:29N 49°18' W 122°41'3 5.6
2018-Feb-13 18:59N 49°16' W 122°43'3 5.1
2018-Feb-13 18:28N 49°14' W 122°46'4 8.1
2018-Feb-13 17:58N 49°13' W 122°51'3 6.3
2018-Feb-13 17:30N 49°12' W 122°55'0 0.0
2018-Feb-13 17:00N 49°12' W 122°55'0 0.0
2018-Feb-13 16:30N 49°12' W 122°55'  

Dump ship's entire track history